Time;durP1;ratioP1;P1;durP2;ratioP2;P2;SDS_P1;SDS_P2;PMS_P1;PMS_P2;Temp;Humidity;BMP_temperature;BMP_pressure;BME280_temperature;BME280_humidity;BME280_pressure;Samples;Min_cycle;Max_cycle;Signal;HPM_P1;HPM_P2
2023/09/04 00:00:25;;;;;;;6.97;3.60;;;16.90;99.90;;;;;;5040220;28;20388;-86
2023/09/04 00:02:50;;;;;;;5.43;4.13;;;16.90;99.90;;;;;;5043107;28;20201;-86
2023/09/04 00:05:18;;;;;;;4.65;3.72;;;17.00;99.90;;;;;;5044345;28;20025;-86
2023/09/04 00:07:44;;;;;;;5.88;4.00;;;16.90;99.90;;;;;;5030943;28;20454;-87
2023/09/04 00:10:12;;;;;;;6.65;4.00;;;16.90;99.90;;;;;;5040978;28;20198;-86
2023/09/04 00:12:38;;;;;;;4.03;3.53;;;16.90;99.90;;;;;;5042970;28;20033;-86
2023/09/04 00:15:05;;;;;;;7.63;4.43;;;16.80;99.90;;;;;;5031503;28;20029;-86
2023/09/04 00:17:31;;;;;;;4.15;3.83;;;16.80;99.90;;;;;;5035359;28;20104;-87
2023/09/04 00:19:57;;;;;;;8.23;4.43;;;16.70;99.90;;;;;;5040474;28;20032;-87
2023/09/04 00:22:22;;;;;;;6.45;4.25;;;16.70;99.90;;;;;;5043084;28;20172;-85
2023/09/04 00:24:48;;;;;;;6.20;3.83;;;16.70;99.90;;;;;;5040742;28;20143;-86
2023/09/04 00:27:14;;;;;;;5.30;4.63;;;16.60;99.90;;;;;;5039126;28;20633;-87
2023/09/04 00:29:39;;;;;;;4.43;4.00;;;16.60;99.90;;;;;;5061498;28;20067;-86
2023/09/04 00:32:06;;;;;;;5.00;4.50;;;16.60;99.90;;;;;;5049735;28;20039;-83
2023/09/04 00:34:32;;;;;;;5.60;4.28;;;16.50;99.90;;;;;;5040638;28;20423;-84
2023/09/04 00:36:58;;;;;;;7.10;4.38;;;16.50;99.90;;;;;;5040671;28;20086;-86
2023/09/04 00:39:24;;;;;;;4.60;4.20;;;16.50;99.90;;;;;;5031509;28;20021;-86
2023/09/04 00:41:52;;;;;;;6.13;4.85;;;16.50;99.90;;;;;;5042667;28;20032;-84
2023/09/04 00:44:17;;;;;;;6.38;4.50;;;16.40;99.90;;;;;;5043999;28;21271;-85
2023/09/04 00:46:44;;;;;;;4.90;4.43;;;16.40;99.90;;;;;;5044807;28;20085;-84
2023/09/04 00:49:15;;;;;;;4.70;4.30;;;16.40;99.90;;;;;;5044364;28;20025;-84
2023/09/04 00:51:40;;;;;;;6.05;4.72;;;16.40;99.90;;;;;;5039492;28;20025;-85
2023/09/04 00:54:08;;;;;;;5.40;4.57;;;16.30;99.90;;;;;;5049251;28;20043;-85
2023/09/04 00:56:34;;;;;;;5.10;4.60;;;16.30;99.90;;;;;;5036991;28;20378;-85
2023/09/04 00:59:00;;;;;;;8.73;4.22;;;16.30;99.90;;;;;;5038147;28;20353;-85
2023/09/04 01:01:26;;;;;;;7.93;4.60;;;16.30;99.90;;;;;;5039271;28;20013;-85
2023/09/04 01:03:52;;;;;;;8.13;4.88;;;16.30;99.90;;;;;;5039992;28;20021;-85
2023/09/04 01:06:17;;;;;;;6.82;5.32;;;16.30;99.90;;;;;;5037575;28;20036;-85
2023/09/04 01:08:43;;;;;;;5.85;4.95;;;16.30;99.90;;;;;;5040205;28;20053;-84
2023/09/04 01:11:40;;;;;;;5.93;5.22;;;16.30;99.90;;;;;;5040183;28;20025;-84
2023/09/04 01:14:12;;;;;;;6.90;5.30;;;16.20;99.90;;;;;;5034096;28;20502;-85
2023/09/04 01:16:41;;;;;;;6.05;5.53;;;16.20;99.90;;;;;;5035963;28;20074;-84
2023/09/04 01:19:10;;;;;;;8.82;5.63;;;16.20;99.90;;;;;;5038766;28;20360;-84
2023/09/04 01:21:39;;;;;;;10.23;5.93;;;16.20;99.90;;;;;;5052673;28;20025;-85
2023/09/04 01:24:08;;;;;;;6.40;5.68;;;16.20;99.90;;;;;;5036466;28;20021;-85
2023/09/04 01:26:52;;;;;;;7.78;5.75;;;16.20;99.90;;;;;;5037520;28;20048;-85
2023/09/04 01:29:39;;;;;;;7.13;6.43;;;16.10;99.90;;;;;;5040674;28;20132;-84
2023/09/04 01:32:20;;;;;;;6.45;5.85;;;16.10;99.90;;;;;;5038160;28;20032;-85
2023/09/04 01:34:49;;;;;;;7.40;6.40;;;16.10;99.90;;;;;;5036968;28;20037;-84
2023/09/04 01:37:18;;;;;;;8.68;6.70;;;16.10;99.90;;;;;;5040302;28;20626;-83
2023/09/04 01:39:45;;;;;;;8.88;6.90;;;16.10;99.90;;;;;;5036194;28;20384;-85
2023/09/04 01:42:11;;;;;;;7.95;6.72;;;16.20;99.90;;;;;;5039479;28;20025;-85
2023/09/04 01:44:37;;;;;;;9.98;6.72;;;16.10;99.90;;;;;;5034777;28;20432;-85
2023/09/04 01:47:03;;;;;;;6.78;6.13;;;16.10;99.90;;;;;;5038183;28;20021;-84
2023/09/04 01:49:29;;;;;;;7.80;6.97;;;16.10;99.90;;;;;;5041113;28;20102;-85
2023/09/04 01:51:58;;;;;;;10.85;6.63;;;16.10;99.90;;;;;;5038365;28;20034;-84
2023/09/04 01:54:23;;;;;;;7.78;6.85;;;16.10;99.90;;;;;;5038073;28;20037;-84
2023/09/04 01:56:49;;;;;;;7.85;7.05;;;16.10;99.90;;;;;;5038070;28;20143;-85
2023/09/04 01:59:15;;;;;;;7.07;6.38;;;16.10;99.90;;;;;;5036663;28;20092;-84
2023/09/04 02:01:40;;;;;;;9.07;7.15;;;16.10;99.90;;;;;;5038392;28;20052;-85
2023/09/04 02:04:06;;;;;;;8.48;6.68;;;16.10;99.90;;;;;;5037858;28;20048;-84
2023/09/04 02:06:32;;;;;;;8.68;6.93;;;16.00;99.90;;;;;;5037460;28;20367;-85
2023/09/04 02:08:57;;;;;;;7.13;6.35;;;16.10;99.90;;;;;;5035824;28;20025;-85
2023/09/04 02:11:23;;;;;;;10.18;6.65;;;16.00;99.90;;;;;;5038692;28;20075;-84
2023/09/04 02:13:49;;;;;;;11.77;6.88;;;16.10;99.90;;;;;;5040265;28;20051;-85
2023/09/04 02:16:15;;;;;;;7.30;5.80;;;16.00;99.90;;;;;;5037669;28;20063;-85
2023/09/04 02:18:41;;;;;;;13.18;6.00;;;16.00;99.90;;;;;;5042199;28;20025;-85
2023/09/04 02:21:07;;;;;;;10.43;6.97;;;16.00;99.90;;;;;;5056769;28;20287;-85
2023/09/04 02:23:33;;;;;;;7.65;6.38;;;16.00;99.90;;;;;;5041099;28;20098;-85
2023/09/04 02:25:59;;;;;;;6.22;5.70;;;16.00;99.90;;;;;;5045987;28;20123;-84
2023/09/04 02:28:24;;;;;;;8.60;6.32;;;15.90;99.90;;;;;;5041018;28;20075;-85
2023/09/04 02:30:50;;;;;;;12.75;6.80;;;15.90;99.90;;;;;;5038653;28;20461;-85
2023/09/04 02:33:16;;;;;;;8.13;6.20;;;15.90;99.90;;;;;;5044950;28;20063;-85
2023/09/04 02:35:42;;;;;;;7.70;6.50;;;15.90;99.90;;;;;;5051232;28;20020;-86
2023/09/04 02:38:07;;;;;;;10.98;6.88;;;15.80;99.90;;;;;;5045762;28;20106;-85
2023/09/04 02:40:33;;;;;;;10.63;6.55;;;15.80;99.90;;;;;;5044921;28;20053;-84
2023/09/04 02:42:59;;;;;;;7.43;6.07;;;15.80;99.90;;;;;;5039583;28;20033;-85
2023/09/04 02:45:25;;;;;;;10.85;6.45;;;15.80;99.90;;;;;;5045418;28;20480;-85
2023/09/04 02:47:50;;;;;;;8.98;7.10;;;15.80;99.90;;;;;;5047284;28;20036;-85
2023/09/04 02:50:16;;;;;;;9.23;6.50;;;15.70;99.90;;;;;;5051732;28;20028;-85
2023/09/04 02:52:42;;;;;;;8.55;6.68;;;15.70;99.90;;;;;;5047739;28;20097;-84
2023/09/04 02:55:08;;;;;;;8.38;6.57;;;15.70;99.90;;;;;;5043392;28;20115;-84
2023/09/04 02:57:34;;;;;;;8.43;7.15;;;15.70;99.90;;;;;;5044435;28;20037;-84
2023/09/04 03:00:00;;;;;;;10.82;6.95;;;15.70;99.90;;;;;;5057399;28;20021;-85
2023/09/04 03:02:26;;;;;;;9.15;8.00;;;15.60;99.90;;;;;;5041871;28;20023;-85
2023/09/04 03:04:56;;;;;;;9.30;7.45;;;15.60;99.90;;;;;;5044698;28;20029;-85
2023/09/04 03:07:22;;;;;;;10.55;7.93;;;15.50;99.90;;;;;;5042459;28;20249;-84
2023/09/04 03:09:52;;;;;;;11.27;7.75;;;15.60;99.90;;;;;;5037430;28;20064;-85
2023/09/04 03:12:18;;;;;;;9.52;8.13;;;15.50;99.90;;;;;;5046557;28;20049;-84
2023/09/04 03:14:44;;;;;;;11.10;8.90;;;15.50;99.90;;;;;;5044468;28;20508;-84
2023/09/04 03:17:10;;;;;;;11.05;8.95;;;15.40;99.90;;;;;;5043636;28;20032;-84
2023/09/04 03:19:35;;;;;;;13.90;8.25;;;15.40;99.90;;;;;;5045902;28;20021;-85
2023/09/04 03:22:01;;;;;;;10.38;8.25;;;15.40;99.90;;;;;;5043609;28;20025;-85
2023/09/04 03:24:26;;;;;;;10.20;7.72;;;15.40;99.90;;;;;;5042907;28;20013;-84
2023/09/04 03:26:52;;;;;;;11.48;8.63;;;15.40;99.90;;;;;;5044871;28;20587;-84
2023/09/04 03:29:18;;;;;;;12.27;8.88;;;15.40;99.90;;;;;;5042895;28;20037;-85
2023/09/04 03:31:43;;;;;;;10.40;9.27;;;15.40;99.90;;;;;;5043834;28;20025;-85
2023/09/04 03:34:09;;;;;;;14.93;8.57;;;15.40;99.90;;;;;;5043894;28;20496;-85
2023/09/04 03:36:34;;;;;;;13.00;8.43;;;15.40;99.90;;;;;;5045134;28;20063;-85
2023/09/04 03:39:02;;;;;;;10.95;9.05;;;15.40;99.90;;;;;;5041226;28;20021;-84
2023/09/04 03:41:29;;;;;;;12.07;9.00;;;15.30;99.90;;;;;;5059462;28;20055;-84
2023/09/04 03:43:55;;;;;;;12.45;8.40;;;15.30;99.90;;;;;;5040845;28;20021;-85
2023/09/04 03:46:23;;;;;;;13.85;9.98;;;15.20;99.90;;;;;;5039787;28;20025;-85
2023/09/04 03:48:48;;;;;;;11.18;8.82;;;15.20;99.90;;;;;;5043625;28;20474;-84
2023/09/04 03:51:16;;;;;;;15.23;9.18;;;15.20;99.90;;;;;;5043876;28;20017;-85
2023/09/04 03:53:42;;;;;;;13.73;8.82;;;15.20;99.90;;;;;;5040984;28;20036;-85
2023/09/04 03:56:09;;;;;;;10.27;8.55;;;15.20;99.90;;;;;;5035564;28;20028;-85
2023/09/04 03:58:35;;;;;;;13.00;8.80;;;15.20;99.90;;;;;;5043386;28;20456;-84
2023/09/04 04:01:02;;;;;;;12.05;9.35;;;15.10;99.90;;;;;;5042191;28;20078;-85
2023/09/04 04:03:29;;;;;;;12.68;8.90;;;15.10;99.90;;;;;;5049039;28;20048;-85
2023/09/04 04:05:55;;;;;;;12.23;9.18;;;15.10;99.90;;;;;;5049127;28;20022;-85
2023/09/04 04:08:20;;;;;;;13.32;9.23;;;15.00;99.90;;;;;;5049064;28;20017;-84
2023/09/04 04:10:46;;;;;;;12.05;9.25;;;15.00;99.90;;;;;;5043112;28;20037;-85
2023/09/04 04:13:12;;;;;;;12.02;9.38;;;15.10;99.90;;;;;;5041966;28;20032;-85
2023/09/04 04:15:38;;;;;;;12.85;9.55;;;15.10;99.90;;;;;;5040857;28;20124;-85
2023/09/04 04:18:05;;;;;;;16.08;10.40;;;15.10;99.90;;;;;;5042873;28;20083;-84
2023/09/04 04:20:31;;;;;;;12.57;9.57;;;15.10;99.90;;;;;;5042971;28;20086;-85
2023/09/04 04:22:57;;;;;;;11.98;9.82;;;15.10;99.90;;;;;;5043705;28;20026;-84
2023/09/04 04:25:25;;;;;;;13.48;9.77;;;15.10;99.90;;;;;;5042768;28;20044;-84
2023/09/04 04:27:50;;;;;;;11.10;9.57;;;15.10;99.90;;;;;;5038778;28;20025;-84
2023/09/04 04:30:16;;;;;;;13.38;9.25;;;15.00;99.90;;;;;;5043203;28;20079;-84
2023/09/04 04:32:42;;;;;;;14.32;9.77;;;15.10;99.90;;;;;;5037688;28;20079;-83
2023/09/04 04:35:08;;;;;;;13.25;9.32;;;15.00;99.90;;;;;;5043129;28;20445;-85
2023/09/04 04:37:36;;;;;;;14.27;10.05;;;15.00;99.90;;;;;;5039732;28;20029;-83
2023/09/04 04:40:03;;;;;;;16.60;9.60;;;15.00;99.90;;;;;;5051770;28;20022;-84
2023/09/04 04:42:29;;;;;;;15.63;9.82;;;15.00;99.90;;;;;;5049250;28;20388;-83
2023/09/04 04:44:56;;;;;;;12.95;10.10;;;15.00;99.90;;;;;;5039797;28;20029;-85
2023/09/04 04:47:21;;;;;;;14.55;10.07;;;15.00;99.90;;;;;;5043093;28;20082;-84
2023/09/04 04:49:47;;;;;;;13.40;9.80;;;15.00;99.90;;;;;;5044275;28;20420;-84
2023/09/04 04:52:12;;;;;;;14.75;9.80;;;15.00;99.90;;;;;;5047868;28;20048;-85
2023/09/04 04:54:38;;;;;;;13.32;10.20;;;15.00;99.90;;;;;;5048340;28;20021;-84
2023/09/04 04:57:04;;;;;;;14.82;10.30;;;15.00;99.90;;;;;;5044258;28;20032;-84
2023/09/04 04:59:30;;;;;;;15.13;10.02;;;14.90;99.90;;;;;;5040453;28;20484;-84
2023/09/04 05:01:58;;;;;;;11.55;9.75;;;14.90;99.90;;;;;;5041270;28;20028;-84
2023/09/04 05:04:23;;;;;;;13.10;10.00;;;14.90;99.90;;;;;;5043286;28;20066;-85
2023/09/04 05:06:49;;;;;;;15.57;10.63;;;15.00;99.90;;;;;;5044842;28;20021;-85
2023/09/04 05:09:15;;;;;;;16.83;10.50;;;15.00;99.90;;;;;;5042383;28;20029;-85
2023/09/04 05:11:40;;;;;;;14.00;10.20;;;15.00;99.90;;;;;;5046411;28;20065;-85
2023/09/04 05:14:06;;;;;;;20.33;10.60;;;15.00;99.90;;;;;;5041110;28;20066;-85
2023/09/04 05:16:32;;;;;;;14.95;10.30;;;15.00;99.90;;;;;;5044595;28;20112;-85
2023/09/04 05:18:58;;;;;;;13.63;10.52;;;15.00;99.90;;;;;;5042661;28;20317;-86
2023/09/04 05:21:26;;;;;;;14.85;10.15;;;15.00;99.90;;;;;;5042941;28;20021;-85
2023/09/04 05:23:52;;;;;;;17.77;10.85;;;15.00;99.90;;;;;;5046552;28;20075;-85
2023/09/04 05:26:17;;;;;;;15.02;10.95;;;15.00;99.90;;;;;;5038618;28;20078;-85
2023/09/04 05:28:43;;;;;;;14.75;11.32;;;15.00;99.90;;;;;;5052268;28;20246;-85
2023/09/04 05:31:09;;;;;;;14.65;10.32;;;15.00;99.90;;;;;;5043673;28;20017;-85
2023/09/04 05:33:34;;;;;;;16.05;11.52;;;15.00;99.90;;;;;;5045597;28;20021;-85
2023/09/04 05:36:00;;;;;;;15.05;11.45;;;15.00;99.90;;;;;;5043934;28;20105;-85
2023/09/04 05:38:26;;;;;;;17.98;11.10;;;15.10;99.90;;;;;;5043984;28;20110;-85
2023/09/04 05:40:55;;;;;;;16.80;11.35;;;15.10;99.90;;;;;;5045413;28;20029;-86
2023/09/04 05:43:22;;;;;;;14.48;10.98;;;15.20;99.90;;;;;;5041602;28;20025;-85
2023/09/04 05:45:48;;;;;;;18.30;11.45;;;15.20;99.90;;;;;;5042196;28;20033;-86
2023/09/04 05:48:13;;;;;;;19.65;11.63;;;15.20;99.90;;;;;;5041527;28;20075;-86
2023/09/04 05:50:39;;;;;;;14.95;11.23;;;15.20;99.90;;;;;;5043393;28;20029;-84
2023/09/04 05:53:05;;;;;;;18.38;11.00;;;15.30;99.90;;;;;;5046353;28;20108;-85
2023/09/04 05:55:30;;;;;;;16.05;11.65;;;15.30;99.90;;;;;;5043666;28;20029;-86
2023/09/04 05:57:56;;;;;;;16.33;10.98;;;15.40;99.90;;;;;;5044163;28;20621;-85
2023/09/04 06:00:21;;;;;;;17.83;11.52;;;15.40;99.90;;;;;;5047089;28;20135;-86
2023/09/04 06:02:47;;;;;;;18.65;12.10;;;15.40;99.90;;;;;;5049816;28;20039;-85
2023/09/04 06:05:13;;;;;;;16.45;12.50;;;15.50;99.90;;;;;;5048586;28;20036;-85
2023/09/04 06:07:39;;;;;;;17.50;12.30;;;15.50;99.90;;;;;;5047712;28;20048;-85
2023/09/04 06:10:05;;;;;;;15.98;11.73;;;15.50;99.90;;;;;;5046878;28;20059;-86
2023/09/04 06:12:31;;;;;;;16.55;12.75;;;15.60;99.90;;;;;;5042580;28;20135;-86
2023/09/04 06:14:56;;;;;;;20.77;12.20;;;15.60;99.90;;;;;;5047770;28;20495;-85
2023/09/04 06:17:22;;;;;;;18.77;12.00;;;15.60;99.90;;;;;;5044443;28;20461;-85
2023/09/04 06:19:48;;;;;;;13.68;11.40;;;15.60;99.90;;;;;;5049538;28;20025;-85
2023/09/04 06:22:13;;;;;;;15.25;11.75;;;15.60;99.90;;;;;;5048310;28;20029;-85
2023/09/04 06:24:39;;;;;;;20.65;12.15;;;15.60;99.90;;;;;;5046992;28;20025;-86
2023/09/04 06:27:04;;;;;;;17.30;11.90;;;15.60;99.90;;;;;;5047979;28;20032;-85
2023/09/04 06:29:30;;;;;;;21.73;12.02;;;15.60;99.90;;;;;;5045043;28;20031;-85
2023/09/04 06:31:56;;;;;;;15.25;12.10;;;15.70;99.90;;;;;;5043952;28;20147;-85
2023/09/04 06:34:23;;;;;;;14.73;12.00;;;15.70;99.90;;;;;;5046831;28;20021;-85
2023/09/04 06:36:49;;;;;;;14.32;11.57;;;15.80;99.90;;;;;;5045166;28;20492;-84
2023/09/04 06:39:15;;;;;;;18.33;12.40;;;15.80;99.90;;;;;;5047354;28;20054;-85
2023/09/04 06:41:41;;;;;;;18.10;11.95;;;15.90;99.90;;;;;;5047649;28;20021;-84
2023/09/04 06:44:06;;;;;;;15.40;11.15;;;15.90;99.90;;;;;;5045571;28;20523;-84
2023/09/04 06:46:32;;;;;;;19.08;11.60;;;16.00;99.90;;;;;;5048910;28;20020;-85
2023/09/04 06:48:58;;;;;;;22.25;11.63;;;16.10;99.90;;;;;;5042249;28;20025;-85
2023/09/04 06:51:23;;;;;;;15.95;11.55;;;16.10;99.90;;;;;;5070445;28;19997;-85
2023/09/04 06:53:49;;;;;;;16.70;11.70;;;16.10;99.90;;;;;;5054063;28;20211;-86
2023/09/04 06:56:15;;;;;;;14.10;11.27;;;16.20;99.90;;;;;;5048550;28;20491;-82
2023/09/04 06:58:41;;;;;;;20.80;12.88;;;16.20;99.90;;;;;;5045352;28;20112;-81
2023/09/04 07:01:06;;;;;;;16.55;11.60;;;16.30;99.90;;;;;;5045456;28;20021;-81
2023/09/04 07:03:33;;;;;;;17.55;11.60;;;16.40;99.90;;;;;;5045056;28;20060;-84
2023/09/04 07:05:59;;;;;;;15.75;10.75;;;16.50;99.90;;;;;;5043019;28;20047;-89
2023/09/04 07:08:25;;;;;;;14.45;10.48;;;16.60;99.90;;;;;;5052025;28;20099;-86
2023/09/04 07:10:52;;;;;;;14.95;10.82;;;16.70;99.90;;;;;;5050039;28;20029;-87
2023/09/04 07:13:20;;;;;;;18.67;11.75;;;16.70;99.90;;;;;;5053370;28;20037;-86
2023/09/04 07:15:46;;;;;;;17.23;10.95;;;16.80;99.90;;;;;;5055736;28;20078;-84
2023/09/04 07:18:11;;;;;;;14.63;10.45;;;16.90;99.90;;;;;;5049279;28;20025;-83
2023/09/04 07:20:37;;;;;;;25.15;14.65;;;17.00;99.90;;;;;;5049286;28;20047;-84
2023/09/04 07:23:03;;;;;;;12.57;10.38;;;17.10;99.90;;;;;;5047871;28;20036;-87
2023/09/04 07:25:30;;;;;;;13.98;11.23;;;17.20;99.90;;;;;;5048776;28;20189;-86
2023/09/04 07:27:58;;;;;;;16.20;11.27;;;17.20;99.90;;;;;;5048895;28;20295;-87
2023/09/04 07:30:24;;;;;;;14.63;10.27;;;17.30;99.90;;;;;;5043074;28;20033;-88
2023/09/04 07:32:49;;;;;;;15.23;10.90;;;17.50;99.90;;;;;;5046347;28;20056;-84
2023/09/04 07:35:15;;;;;;;13.25;10.05;;;17.50;99.90;;;;;;5043239;28;20024;-85
2023/09/04 07:37:41;;;;;;;14.65;10.68;;;17.60;99.90;;;;;;5045405;28;20025;-85
2023/09/04 07:40:08;;;;;;;17.00;10.95;;;17.80;99.90;;;;;;5049176;28;20031;-85
2023/09/04 07:42:34;;;;;;;12.95;10.40;;;17.90;99.90;;;;;;5044949;28;20024;-85
2023/09/04 07:45:00;;;;;;;13.77;9.80;;;18.00;99.90;;;;;;5047512;28;20029;-85
2023/09/04 07:47:25;;;;;;;12.82;10.77;;;18.10;99.90;;;;;;5044793;28;20397;-85
2023/09/04 07:49:52;;;;;;;16.05;10.70;;;18.20;99.90;;;;;;5044843;28;20013;-86
2023/09/04 07:52:18;;;;;;;16.10;10.13;;;18.30;99.90;;;;;;5043233;28;20029;-85
2023/09/04 07:54:44;;;;;;;21.25;13.55;;;18.30;99.90;;;;;;5042698;28;20059;-81
2023/09/04 07:57:10;;;;;;;18.67;12.93;;;18.50;99.90;;;;;;5041777;28;20044;-81
2023/09/04 07:59:36;;;;;;;13.68;10.35;;;18.70;99.90;;;;;;5043245;28;20072;-85
2023/09/04 08:02:03;;;;;;;13.05;10.15;;;18.80;99.90;;;;;;5045125;28;20136;-85
2023/09/04 08:04:29;;;;;;;14.88;9.80;;;19.00;99.90;;;;;;5045548;28;20035;-85
2023/09/04 08:06:58;;;;;;;14.45;9.27;;;19.10;99.90;;;;;;5044897;28;20112;-85
2023/09/04 08:09:23;;;;;;;12.07;9.35;;;19.20;99.90;;;;;;5040988;28;20032;-85
2023/09/04 08:11:49;;;;;;;12.55;9.07;;;19.30;99.90;;;;;;5046213;28;20033;-85
2023/09/04 08:14:15;;;;;;;12.98;9.32;;;19.40;99.90;;;;;;5041454;28;20116;-85
2023/09/04 08:16:41;;;;;;;11.00;9.75;;;19.50;99.90;;;;;;5042831;28;20021;-85
2023/09/04 08:19:06;;;;;;;13.07;8.77;;;19.60;99.90;;;;;;5047905;28;20020;-85
2023/09/04 08:21:32;;;;;;;10.73;8.30;;;19.80;99.90;;;;;;5044169;28;20116;-87
2023/09/04 08:23:58;;;;;;;194.52;80.50;;;20.00;99.90;;;;;;5041492;28;20029;-83
2023/09/04 08:26:23;;;;;;;26.23;13.57;;;20.20;99.90;;;;;;5041344;28;20079;-82
2023/09/04 08:28:49;;;;;;;12.52;8.90;;;20.30;99.90;;;;;;5046812;28;20036;-84
2023/09/04 08:31:15;;;;;;;10.63;8.25;;;20.50;99.90;;;;;;5039187;28;20056;-84
2023/09/04 08:33:40;;;;;;;14.68;8.60;;;20.80;99.90;;;;;;5041674;28;20119;-84
2023/09/04 08:36:06;;;;;;;9.27;8.02;;;21.00;99.90;;;;;;5043768;28;20032;-84
2023/09/04 08:38:32;;;;;;;13.60;8.00;;;21.10;99.90;;;;;;5040380;28;20030;-84
2023/09/04 08:41:04;;;;;;;9.10;7.45;;;21.30;99.90;;;;;;5038818;28;20033;-84
2023/09/04 08:43:31;;;;;;;8.63;7.65;;;21.50;99.90;;;;;;5059976;28;20089;-85
2023/09/04 08:45:59;;;;;;;8.48;7.38;;;21.70;99.90;;;;;;5036694;28;20138;-85
2023/09/04 08:48:29;;;;;;;11.77;7.68;;;21.90;99.90;;;;;;5038348;28;20023;-85
2023/09/04 08:50:56;;;;;;;9.18;7.60;;;22.00;99.90;;;;;;5040364;28;20025;-83
2023/09/04 08:53:22;;;;;;;66.03;27.50;;;22.10;99.90;;;;;;5043456;28;20039;-86
2023/09/04 08:55:50;;;;;;;9.43;7.72;;;22.40;99.90;;;;;;5041578;28;20065;-86
2023/09/04 08:58:16;;;;;;;7.78;6.90;;;22.50;99.90;;;;;;5043244;28;20107;-86
2023/09/04 09:00:46;;;;;;;7.78;6.97;;;22.70;99.70;;;;;;5041299;28;20067;-86
2023/09/04 09:03:14;;;;;;;9.93;7.63;;;22.80;98.80;;;;;;5060071;28;20047;-83
2023/09/04 09:05:41;;;;;;;8.02;6.60;;;23.20;98.10;;;;;;5049035;28;20033;-85
2023/09/04 09:08:07;;;;;;;7.88;6.90;;;23.50;97.50;;;;;;5060760;28;20021;-83
2023/09/04 09:10:34;;;;;;;7.85;6.60;;;23.90;97.00;;;;;;5047233;28;20029;-85
2023/09/04 09:12:59;;;;;;;10.55;6.68;;;24.00;96.20;;;;;;5044720;28;20029;-84
2023/09/04 09:15:25;;;;;;;8.57;6.45;;;24.30;95.20;;;;;;5045782;28;20021;-85
2023/09/04 09:17:53;;;;;;;7.85;7.13;;;24.40;95.10;;;;;;5039979;28;20044;-84
2023/09/04 09:20:42;;;;;;;49.95;29.58;;;24.70;95.00;;;;;;5041026;28;20439;-83
2023/09/04 09:23:07;;;;;;;6.90;6.20;;;24.90;93.90;;;;;;5045137;28;20071;-85
2023/09/04 09:25:34;;;;;;;6.80;6.03;;;24.90;93.00;;;;;;5030764;28;20112;-81
2023/09/04 09:28:08;;;;;;;6.93;6.22;;;24.80;92.30;;;;;;5037766;28;20449;-81
2023/09/04 09:30:35;;;;;;;6.05;5.53;;;24.70;93.20;;;;;;5039584;28;20496;-81
2023/09/04 09:33:12;;;;;;;7.10;6.50;;;24.90;94.00;;;;;;5039034;28;20029;-80
2023/09/04 09:35:42;;;;;;;11.18;6.30;;;24.90;92.80;;;;;;5040390;28;20052;-81
2023/09/04 09:38:08;;;;;;;8.07;6.60;;;24.90;92.90;;;;;;5040598;28;20037;-81
2023/09/04 09:40:34;;;;;;;6.63;6.03;;;24.90;92.60;;;;;;5038406;28;20141;-81
2023/09/04 09:43:00;;;;;;;7.95;6.40;;;25.10;93.50;;;;;;5040729;28;20092;-80
2023/09/04 09:45:36;;;;;;;7.22;6.53;;;25.20;92.00;;;;;;5037120;28;20027;-81
2023/09/04 09:48:07;;;;;;;68.82;33.13;;;25.40;92.10;;;;;;5032569;28;20081;-80
2023/09/04 09:50:39;;;;;;;6.63;6.13;;;25.50;91.60;;;;;;5033442;28;20025;-81
2023/09/04 09:53:05;;;;;;;7.50;5.87;;;25.50;91.10;;;;;;5040623;28;20060;-81
2023/09/04 09:55:32;;;;;;;6.55;5.93;;;25.40;90.80;;;;;;5035038;28;20322;-80
2023/09/04 09:57:59;;;;;;;9.00;6.50;;;25.40;91.00;;;;;;5027256;28;20109;-80
2023/09/04 10:00:26;;;;;;;5.78;5.18;;;25.60;91.20;;;;;;5033917;28;20482;-80
2023/09/04 10:02:54;;;;;;;10.45;5.88;;;25.80;90.80;;;;;;5038998;28;20102;-81
2023/09/04 10:05:24;;;;;;;6.45;5.53;;;25.90;90.90;;;;;;5028636;28;20032;-80
2023/09/04 10:07:58;;;;;;;179.20;103.57;;;26.10;90.20;;;;;;5032732;28;20392;-84
2023/09/04 10:10:24;;;;;;;178.05;96.30;;;26.20;88.40;;;;;;5039725;28;20658;-79
2023/09/04 10:12:59;;;;;;;7.30;5.30;;;26.40;89.00;;;;;;5036940;28;20083;-80
2023/09/04 10:15:27;;;;;;;5.40;4.90;;;26.50;86.90;;;;;;5037670;28;20029;-80
2023/09/04 10:18:03;;;;;;;6.43;4.53;;;26.60;87.10;;;;;;5040779;28;20033;-79
2023/09/04 10:20:29;;;;;;;5.57;4.90;;;26.80;87.90;;;;;;5032565;28;20021;-82
2023/09/04 10:23:08;;;;;;;4.93;4.50;;;27.00;85.30;;;;;;5038682;28;20484;-80
2023/09/04 10:25:58;;;;;;;5.43;5.03;;;27.00;86.40;;;;;;5039734;28;20087;-80
2023/09/04 10:28:39;;;;;;;5.25;4.53;;;27.00;85.10;;;;;;5037644;28;20021;-80
2023/09/04 10:31:06;;;;;;;7.20;4.70;;;27.20;85.70;;;;;;5044041;28;20022;-81
2023/09/04 10:33:32;;;;;;;6.20;5.70;;;27.20;86.60;;;;;;5040333;28;20025;-80
2023/09/04 10:35:58;;;;;;;4.68;4.38;;;27.40;85.30;;;;;;5039946;28;20025;-80
2023/09/04 10:38:26;;;;;;;5.07;4.68;;;27.70;84.60;;;;;;5036258;28;20036;-80
2023/09/04 10:40:54;;;;;;;5.28;4.80;;;27.90;79.90;;;;;;5053018;28;20072;-79
2023/09/04 10:43:20;;;;;;;4.70;4.40;;;27.80;84.10;;;;;;5052913;28;20025;-80
2023/09/04 10:46:08;;;;;;;4.22;3.92;;;27.90;81.50;;;;;;5044912;28;20025;-80
2023/09/04 10:48:53;;;;;;;5.05;4.55;;;27.80;78.60;;;;;;5043815;28;20025;-80
2023/09/04 10:51:37;;;;;;;7.38;4.65;;;27.80;79.20;;;;;;5041825;28;20036;-80
2023/09/04 10:54:20;;;;;;;5.13;4.80;;;27.70;78.00;;;;;;5046453;28;20605;-81
2023/09/04 10:56:52;;;;;;;;;;;27.80;79.10;;;;;;5040867;28;20033;-82
2023/09/04 10:59:17;;;;;;;4.57;4.17;;;28.00;79.10;;;;;;5043484;28;19923;-80
2023/09/04 11:01:45;;;;;;;6.10;4.30;;;27.90;76.40;;;;;;5039883;28;20350;-83
2023/09/04 11:04:32;;;;;;;4.80;4.10;;;28.00;77.50;;;;;;5041324;28;20017;-83
2023/09/04 11:07:19;;;;;;;4.85;4.45;;;28.00;76.40;;;;;;5044824;28;20533;-84
2023/09/04 11:09:45;;;;;;;4.35;4.05;;;27.80;73.60;;;;;;5047822;28;20029;-83
2023/09/04 11:12:17;;;;;;;6.35;4.60;;;27.70;72.80;;;;;;5051378;28;20028;-83
2023/09/04 11:14:47;;;;;;;5.57;5.22;;;27.50;75.20;;;;;;5043703;28;20029;-82
2023/09/04 11:17:16;;;;;;;5.03;4.55;;;27.60;77.40;;;;;;5033492;28;20040;-82
2023/09/04 11:19:43;;;;;;;23.67;13.82;;;27.80;78.20;;;;;;5026471;28;20587;-83
2023/09/04 11:22:16;;;;;;;5.32;4.80;;;28.00;75.30;;;;;;5026643;28;20091;-79
2023/09/04 11:24:42;;;;;;;152.65;87.22;;;28.00;75.30;;;;;;5022086;28;20029;-80
2023/09/04 11:27:07;;;;;;;5.20;4.80;;;28.00;75.20;;;;;;5027260;28;20084;-79
2023/09/04 11:29:33;;;;;;;5.00;4.60;;;28.10;72.80;;;;;;5024474;28;20393;-82
2023/09/04 11:32:00;;;;;;;5.55;5.00;;;28.20;73.00;;;;;;5026879;28;20070;-82
2023/09/04 11:34:26;;;;;;;5.60;4.95;;;28.20;74.30;;;;;;5022960;28;20295;-83
2023/09/04 11:36:52;;;;;;;4.43;3.97;;;28.20;75.10;;;;;;5025220;28;20031;-82
2023/09/04 11:39:19;;;;;;;4.43;4.20;;;28.30;73.50;;;;;;5025166;28;20551;-79
2023/09/04 11:41:46;;;;;;;4.45;4.13;;;28.30;72.80;;;;;;5023509;28;20028;-79
2023/09/04 11:44:12;;;;;;;5.43;5.03;;;28.30;70.00;;;;;;5026875;28;20017;-79
2023/09/04 11:46:38;;;;;;;4.30;4.00;;;28.10;71.10;;;;;;5026329;28;20017;-80
2023/09/04 11:49:04;;;;;;;4.85;4.55;;;28.30;75.50;;;;;;5030610;28;20084;-78
2023/09/04 11:51:32;;;;;;;4.28;3.97;;;28.60;74.10;;;;;;5028100;28;20025;-79
2023/09/04 11:53:57;;;;;;;15.88;8.35;;;28.90;74.50;;;;;;5022735;28;20053;-84
2023/09/04 11:56:23;;;;;;;85.95;41.33;;;29.00;70.60;;;;;;5025796;28;20076;-82
2023/09/04 11:58:52;;;;;;;5.63;4.03;;;29.10;66.70;;;;;;5024514;28;20389;-83
2023/09/04 12:01:18;;;;;;;4.80;4.35;;;29.30;68.90;;;;;;5029058;28;20030;-79
2023/09/04 12:03:43;;;;;;;4.40;4.13;;;29.30;67.60;;;;;;5025359;28;20075;-79
2023/09/04 12:06:12;;;;;;;4.53;4.22;;;29.20;69.20;;;;;;5025671;28;20029;-78
2023/09/04 12:08:38;;;;;;;4.32;4.00;;;29.30;68.00;;;;;;5026165;28;20026;-78
2023/09/04 12:11:03;;;;;;;3.83;3.53;;;29.00;66.40;;;;;;5029764;28;20029;-79
2023/09/04 12:13:29;;;;;;;4.22;3.92;;;28.80;65.10;;;;;;5024804;28;20036;-78
2023/09/04 12:16:05;;;;;;;4.22;3.92;;;28.80;66.10;;;;;;5029342;28;20071;-77
2023/09/04 12:18:37;;;;;;;4.07;3.78;;;28.70;66.70;;;;;;5022613;28;20803;-77
2023/09/04 12:21:09;;;;;;;4.28;3.88;;;28.60;67.80;;;;;;5030826;28;20053;-77
2023/09/04 12:23:43;;;;;;;4.35;4.05;;;28.80;67.80;;;;;;5026239;28;20033;-77
2023/09/04 12:26:09;;;;;;;4.30;4.10;;;28.80;67.70;;;;;;5026160;28;20040;-77
2023/09/04 12:28:36;;;;;;;4.30;3.92;;;29.00;70.70;;;;;;5026663;28;20090;-77
2023/09/04 12:31:02;;;;;;;4.18;3.88;;;29.20;71.10;;;;;;5028205;28;20102;-77
2023/09/04 12:33:28;;;;;;;3.70;3.40;;;29.30;66.80;;;;;;5026230;28;20037;-77
2023/09/04 12:35:58;;;;;;;11.63;3.70;;;29.40;64.90;;;;;;5027530;28;20113;-77
2023/09/04 12:38:24;;;;;;;6.78;3.90;;;29.30;65.60;;;;;;5023575;28;20025;-79